Hovedside
METAR-TAF:

METAR-TAF

Lufthavner :

Kajana, Finland

Kajana lufthavn

breddegrad: 64-17N, lengdegrad: 027-41E, høyde over havet: 143 m

Gjeldene værobservasjon

Denne rapporten ble laget for 35 minutter siden, klokken 18:20 UTC
Vind 3 kt fra Øst-sørøst
Temperatur 8°C
Luftfuktighet 87%
Trykk 1033 hPa
Sikt 10 km eller mer
Brutte skyer i en høyde av 1800 ft

METAR: EFKI 221820Z AUTO 12003KT 9999 BKN018 08/06 Q1033

Tid: 21:55 (18:55 UTC)

Varsel

Denne rapporten ble laget for 1 time og 23 minutter siden, klokken 17:32 UTC
Varsel gyldig fra 22. klokken 18 UTC til 22. klokken 21 UTC
Vind 6 kt fra Sørøst
Sikt 10 km eller mer
Brutte skyer i en høyde av 1800 ft

TAF: EFKI 221732Z 2218/2221 13006KT 9999 BKN018

Værobservasjoner og værvarsel for over 4000 flyplasser (METAR- og TAF-rapporter).

Tilgjengelige stasjoner er representert av de røde og gule prikkene på kartet.

Hold musepekeren over prikken for å se navnet på stasjonen.

Klikk så for å se værobservasjoner og -varsler.

For å forandre kartet kan du klikke på den grønne knappen med svart kryss for å zoome inn, på den grønne knappen med strek for å zoome ut, eller på de grønne pilene for å se tilstøtende kart.


METAR-TAF: